Tonasket, WA (98855)

7:57 PM PDT on September 16, 2014 (GMT -0700)
Mt. Hull | Change Station
CLOSE
Current Station
Personal Weather Station
Location: Tonasket, WA
Elevation: 2995 ft
Nearby Weather Stations

Elev 2995 ft 48.83 °N, 119.33 °W | Updated 7 minutes ago

Partly Cloudy
Partly Cloudy
65.2 °F
Feels Like 65.2 °F
N
0.0
Wind Variable Wind from West
Gusts 0.0 mph

Today
High -- | Low -- °F
--% Chance of Precip.
Yesterday
High -- | Low -- °F
Precip. -- in
6:35 AM 7:07 PM
Last Quarter, 40% visible
Pressure 29.75 in
Visibility 10.0 miles
Clouds Clear
Dew Point 35 °F
Humidity 32%
Rainfall 0.00 in
Snow Depth 0 in , 0 in , 0 in
UV 0.0 out of 12
Pollen 7.20 out of 12
Air Quality Not available.
Flu Activity Not available.
METAR KOMK 170053Z AUTO 00000KT 10SM CLR 30/01 A2976 RMK AO2 SLP072 T03000011

More Conditions Fewer Conditions

Pressure 29.75 in
Visibility 10.0 miles
Clouds Clear
Dew Point 35 °F
Humidity 32%
Rainfall 0.00 in
Snow Depth 0 in , 0 in , 0 in
UV 0.0 out of 12
Pollen 7.20 out of 12
Air Quality Not available.
Flu Activity Not available.
METAR KOMK 170053Z AUTO 00000KT 10SM CLR 30/01 A2976 RMK AO2 SLP072 T03000011

More Conditions Fewer Conditions

10-Day Weather Forecast

Almanac

Astronomy

Sep. 16, 2014 Rise Set
Actual Time 6:35 AM PDT 7:07 PM PDT
Civil Twilight 6:04 AM PDT 7:39 PM PDT
Nautical Twilight 5:26 AM PDT 8:16 PM PDT
Astronomical Twilight 4:47 AM PDT 8:55 PM PDT
Moon No Moon Rise 2:56 PM PDT (9/16)
Length of Visible Light 13h 35m
Length of Day
12h 32m
Tomorrow will be 3m 32s shorter.
Last Quarter, 40% of the Moon is Illuminated
Today
Last Quarter
Sep 24
New
Oct 1
First Quarter
Oct 8
Full
Oct 15
Last Quarter

Today's Extremes

State Highs State Lows

Community

WunderPhotos

Upload Photos

1,753,949 photos uploaded!

Nearby

Snow Depth

Station Depth Elevation
Quartz Peak 0 in 4700 ft
Grouse Camp 0 in 5380 ft
Morse Lake 0 in 5400 ft
Swift Creek 0 in 3770 ft
Lone Pine 0 in 3800 ft

Earthquake Activity

City Distance Mag. Time & Date
No recent earthquake activity has been reported nearby.
Minimum magnitude displayed is 2.5.

Coastal Water Temperatures

Place Temperature
No Stations Reporting

Nearby Weather Stations